Marella Spirit — 9HA2336 — position and weather

sailwx.info

Track history (hours):
 
Tides and Currents Weather Stations Pressure Air Temp Water Temp Dewpoint Dewpoint Depression Visibility Wind Speed Wind Dir Waves Ship Positions

Marella Spirit

Last reported at 2018-Apr-23 13:26 UTC. Time now 2018-Apr-23 13:51 UTC.
Position N 38°54' E 001°27'.

Length 214 m; draft 8 m.

Type: Passenger vessel. MMSI: 248368000.

Date/timePositionNaut miles runAvg speedWind from/ knotsBaromVisibWave heightAir tempDewpointWater temp
2018-Apr-23 13:26N 38°54' E 001°27'0 0.0
2018-Apr-23 13:00N 38°54' E 001°27'0 0.0
2018-Apr-23 12:17N 38°54' E 001°27'0 0.0
2018-Apr-23 11:16N 38°54' E 001°27'0 0.0
2018-Apr-23 11:00N 38°54' E 001°27'0 0.0
2018-Apr-23 10:30N 38°54' E 001°27'0 0.0
2018-Apr-23 09:59N 38°54' E 001°27'0 0.0
2018-Apr-23 09:28N 38°54' E 001°27'0 0.0
2018-Apr-23 08:48N 38°54' E 001°27'0 0.0
2018-Apr-23 07:10N 38°54' E 001°27'0 0.0
2018-Apr-23 06:42N 38°54' E 001°27'1 0.9
2018-Apr-23 05:12N 38°54' E 001°29'2 5.6
2018-Apr-23 04:55N 38°53' E 001°30'512.3
2018-Apr-23 04:30N 38°56' E 001°36'11813.7
2018-Apr-22 19:54N 40°52' E 002°05'410.9
2018-Apr-22 19:30N 40°56' E 002°06'510.5
2018-Apr-22 19:00N 41°02' E 002°07'510.8
2018-Apr-22 18:31N 41°07' E 002°09'510.7
2018-Apr-22 18:01N 41°12' E 002°10'510.8
2018-Apr-22 17:30N 41°18' E 002°11'4 7.1
2018-Apr-22 17:00N 41°21' E 002°10'0 0.8
2018-Apr-22 16:31N 41°21' E 002°11'0 0.0
2018-Apr-22 16:00N 41°21' E 002°11'0 0.0
2018-Apr-22 15:31N 41°21' E 002°11'0 0.0
2018-Apr-22 15:01N 41°21' E 002°11'0 0.0
2018-Apr-22 14:31N 41°21' E 002°11'0 0.0
2018-Apr-22 14:01N 41°21' E 002°11'0 0.0
2018-Apr-22 13:31N 41°21' E 002°11'0 0.0
2018-Apr-22 13:01N 41°21' E 002°11'0 0.0
2018-Apr-22 12:31N 41°21' E 002°11'0 0.0
2018-Apr-22 12:01N 41°21' E 002°11'0 0.0
2018-Apr-22 11:31N 41°21' E 002°11'0 0.0
2018-Apr-22 11:01N 41°21' E 002°11'0 0.0
2018-Apr-22 10:31N 41°21' E 002°11'0 0.0
2018-Apr-22 10:01N 41°21' E 002°11'0 0.0
2018-Apr-22 09:31N 41°21' E 002°11'0 0.0
2018-Apr-22 09:01N 41°21' E 002°11'0 0.0
2018-Apr-22 08:31N 41°21' E 002°11'0 0.0
2018-Apr-22 08:00N 41°21' E 002°11'0 0.0
2018-Apr-22 07:31N 41°21' E 002°11'0 0.0
2018-Apr-22 07:01N 41°21' E 002°11'0 0.0
2018-Apr-22 06:30N 41°21' E 002°11'0 0.1
2018-Apr-22 06:00N 41°21' E 002°11'1 2.6
2018-Apr-22 05:30N 41°20' E 002°10'2 4.4
2018-Apr-22 05:01N 41°18' E 002°11'510.3
2018-Apr-22 04:31N 41°19' E 002°17'714.0
2018-Apr-22 04:00N 41°22' E 002°25'12014.6
2018-Apr-21 19:44N 42°27' E 004°42'315.2
2018-Apr-21 19:30N 42°29' E 004°46'1015.2
2018-Apr-21 18:53N 42°34' E 004°57'815.3
2018-Apr-21 18:21N 42°39' E 005°06'1315.5
2018-Apr-21 17:31N 42°46' E 005°20'115.7
2018-Apr-21 17:28N 42°46' E 005°22'715.8
2018-Apr-21 16:59N 42°50' E 005°30'2515.1
2018-Apr-21 15:20N 43°05' E 005°58'2 7.2
2018-Apr-21 15:01N 43°06' E 005°55'1 1.5
2018-Apr-21 14:30N 43°07' E 005°56'0 0.0
2018-Apr-21 14:01N 43°07' E 005°56'0 0.0
2018-Apr-21 13:31N 43°07' E 005°56'0 0.0
2018-Apr-21 13:01N 43°07' E 005°56'0 0.0
2018-Apr-21 12:31N 43°07' E 005°56'0 0.0
2018-Apr-21 12:01N 43°07' E 005°56'0 0.0
2018-Apr-21 11:31N 43°07' E 005°56'0 0.0
2018-Apr-21 11:01N 43°07' E 005°56'0 0.0
2018-Apr-21 10:30N 43°07' E 005°56'0 0.0
2018-Apr-21 10:00N 43°07' E 005°56'0 0.0
2018-Apr-21 09:31N 43°07' E 005°56'0 0.0
2018-Apr-21 09:01N 43°07' E 005°56'0 0.0
2018-Apr-21 08:31N 43°07' E 005°56'0 0.0
2018-Apr-21 08:01N 43°07' E 005°56'0 0.0
2018-Apr-21 07:30N 43°07' E 005°56'0 0.0
2018-Apr-21 07:01N 43°07' E 005°56'0 0.3
2018-Apr-21 06:30N 43°07' E 005°56'0 0.5
2018-Apr-21 06:00N 43°07' E 005°55'1 3.0
2018-Apr-21 05:31N 43°05' E 005°56'4610.5
2018-Apr-21 01:06N 43°10' E 006°59'113.6
2018-Apr-21 01:00N 43°11' E 007°01'510.5
2018-Apr-21 00:30N 43°13' E 007°07'3 6.6
2018-Apr-20 23:59N 43°15' E 007°11'3 6.5
2018-Apr-20 23:30N 43°17' E 007°15'3 6.3
2018-Apr-20 22:59N 43°19' E 007°19'3 6.4
2018-Apr-20 22:30N 43°20' E 007°22'3 6.3
2018-Apr-20 22:00N 43°22' E 007°26'3 6.4
2018-Apr-20 21:30N 43°24' E 007°30'3 5.8
2018-Apr-20 20:59N 43°26' E 007°32'4 6.2
2018-Apr-20 20:23N 43°30' E 007°31'5 6.4
2018-Apr-20 19:39N 43°35' E 007°29'43 2.3
2018-Apr-20 01:20N 43°32' E 008°29'513.9
2018-Apr-20 01:00N 43°32' E 008°35'713.5
2018-Apr-20 00:31N 43°32' E 008°44'713.8
2018-Apr-20 00:01N 43°32' E 008°54'713.9
2018-Apr-19 23:30N 43°32' E 009°03'611.2
2018-Apr-19 23:01N 43°32' E 009°11'5 9.2
2018-Apr-19 22:30N 43°32' E 009°17'4 8.5
2018-Apr-19 22:00N 43°32' E 009°23'4 8.5
2018-Apr-19 21:31N 43°32' E 009°29'4 8.5
2018-Apr-19 21:00N 43°32' E 009°35'4 8.5
2018-Apr-19 20:30N 43°32' E 009°41'4 8.5
2018-Apr-19 20:00N 43°32' E 009°47'4 8.5
2018-Apr-19 19:31N 43°31' E 009°52'4 8.6
2018-Apr-19 19:00N 43°31' E 009°58'4 8.7
2018-Apr-19 18:30N 43°30' E 010°04'4 8.5
2018-Apr-19 18:01N 43°30' E 010°10'4 8.3
2018-Apr-19 17:31N 43°32' E 010°15'2 4.7
2018-Apr-19 17:01N 43°33' E 010°18'0 0.0
2018-Apr-19 16:31N 43°33' E 010°18'0 0.0
2018-Apr-19 16:01N 43°33' E 010°18'0 0.0
2018-Apr-19 15:31N 43°33' E 010°18'0 0.0
2018-Apr-19 15:01N 43°33' E 010°18'0 0.0
2018-Apr-19 14:31N 43°33' E 010°18'0 0.0
2018-Apr-19 14:01N 43°33' E 010°18'0 0.0
2018-Apr-19 13:31N 43°33' E 010°18'0 0.0
2018-Apr-19 13:01N 43°33' E 010°18'0 0.0
2018-Apr-19 12:30N 43°33' E 010°18'0 0.0
2018-Apr-19 12:01N 43°33' E 010°18'0 0.0
2018-Apr-19 11:31N 43°33' E 010°18'0 0.0
2018-Apr-19 11:01N 43°33' E 010°18'0 0.0
2018-Apr-19 10:30N 43°33' E 010°18'0 0.0
2018-Apr-19 10:01N 43°33' E 010°18'0 0.0
2018-Apr-19 09:31N 43°33' E 010°18'0 0.0
2018-Apr-19 09:01N 43°33' E 010°18'0 0.0
2018-Apr-19 08:31N 43°33' E 010°18'0 0.0
2018-Apr-19 08:01N 43°33' E 010°18'0 0.0
2018-Apr-19 07:31N 43°33' E 010°18'0 0.0
2018-Apr-19 07:00N 43°33' E 010°18'0 0.0
2018-Apr-19 06:31N 43°33' E 010°18'0 0.0
2018-Apr-19 06:00N 43°33' E 010°18'0 0.0
2018-Apr-19 05:31N 43°33' E 010°18'0 0.0
2018-Apr-19 05:00N 43°33' E 010°18'0 0.0
2018-Apr-19 04:30N 43°33' E 010°18'2 4.2
2018-Apr-19 04:01N 43°32' E 010°16'612.9
2018-Apr-19 03:30N 43°27' E 010°09'714.2
2018-Apr-19 03:01N 43°22' E 010°03'714.1
2018-Apr-19 02:31N 43°17' E 009°55'714.1
2018-Apr-19 02:00N 43°14' E 009°46'714.1
2018-Apr-19 01:30N 43°12' E 009°37'714.3
2018-Apr-19 01:00N 43°09' E 009°29'714.1
2018-Apr-19 00:29N 43°04' E 009°21'714.0
2018-Apr-19 00:00N 43°00' E 009°13'35113.7
2018-Apr-17 22:21N 39°17' E 003°13'513.6
2018-Apr-17 22:01N 39°15' E 003°07'1312.7
2018-Apr-17 21:01N 39°18' E 002°51'014.1
2018-Apr-17 21:00N 39°18' E 002°51'713.5
2018-Apr-17 20:30N 39°21' E 002°44'612.9
2018-Apr-17 20:01N 39°27' E 002°39'612.4
2018-Apr-17 19:30N 39°33' E 002°39'1 1.5
2018-Apr-17 19:00N 39°33' E 002°38'0 0.0
2018-Apr-17 18:30N 39°33' E 002°38'0 0.0
2018-Apr-17 18:00N 39°33' E 002°38'0 0.0
2018-Apr-17 17:30N 39°33' E 002°38'0 0.0
2018-Apr-17 17:00N 39°33' E 002°38'0 0.0
2018-Apr-17 16:30N 39°33' E 002°38'0 0.0
2018-Apr-17 16:00N 39°33' E 002°38'0 0.0
2018-Apr-17 15:30N 39°33' E 002°38'0 0.0
2018-Apr-17 15:00N 39°33' E 002°38'0 0.0
2018-Apr-17 14:31N 39°33' E 002°38'0 0.0
2018-Apr-17 14:00N 39°33' E 002°38'0 0.0
2018-Apr-17 13:29N 39°33' E 002°38'0 0.0
2018-Apr-17 13:00N 39°33' E 002°38'0 0.0
2018-Apr-17 12:30N 39°33' E 002°38'0 0.0
2018-Apr-17 11:59N 39°33' E 002°38'0 0.0
2018-Apr-17 11:30N 39°33' E 002°38'0 0.0
2018-Apr-17 11:00N 39°33' E 002°38'0 0.0
2018-Apr-17 10:30N 39°33' E 002°38'0 0.0
2018-Apr-17 10:00N 39°33' E 002°38'0 0.0
2018-Apr-17 09:30N 39°33' E 002°38'0 0.0
2018-Apr-17 09:00N 39°33' E 002°38'0 0.0
2018-Apr-17 08:30N 39°33' E 002°38'0 0.0
2018-Apr-17 08:00N 39°33' E 002°38'0 0.0
2018-Apr-17 07:30N 39°33' E 002°38'0 0.0
2018-Apr-17 07:00N 39°33' E 002°38'0 0.0
2018-Apr-17 06:30N 39°33' E 002°38'0 0.0
2018-Apr-17 06:00N 39°33' E 002°38'0 0.0
2018-Apr-17 05:30N 39°33' E 002°38'0 0.0
2018-Apr-17 05:00N 39°33' E 002°38'0 0.0
2018-Apr-17 04:30N 39°33' E 002°38'0 0.0
2018-Apr-17 04:00N 39°33' E 002°38'0 0.2
2018-Apr-17 03:30N 39°33' E 002°38'4 8.5
2018-Apr-17 03:00N 39°29' E 002°39'816.4
2018-Apr-17 02:30N 39°21' E 002°44'916.9
2018-Apr-17 01:59N 39°17' E 002°53'817.1
2018-Apr-17 01:30N 39°14' E 003°03'917.4
2018-Apr-17 00:59N 39°13' E 003°15'25616.6
2018-Apr-16 09:35N 38°46' E 008°42'216.0
2018-Apr-16 09:29N 38°46' E 008°44'715.7
2018-Apr-16 09:00N 38°47' E 008°54'915.9
2018-Apr-16 08:28N 38°50' E 009°04'816.1
2018-Apr-16 07:59N 38°52' E 009°13'816.4
2018-Apr-16 07:30N 38°55' E 009°23'23416.6
2018-Apr-15 17:22N 40°37' E 013°58'716.7
2018-Apr-15 16:55N 40°41' E 014°06'716.6
2018-Apr-15 16:31N 40°45' E 014°13'510.6
2018-Apr-15 16:00N 40°50' E 014°16'0 0.1
2018-Apr-15 15:30N 40°50' E 014°16'0 0.0
2018-Apr-15 14:59N 40°50' E 014°16'0 0.0
2018-Apr-15 14:30N 40°50' E 014°16'0 0.0
2018-Apr-15 14:00N 40°50' E 014°16'0 0.0
2018-Apr-15 13:30N 40°50' E 014°16'0 0.0
2018-Apr-15 13:00N 40°50' E 014°16'0 0.0
2018-Apr-15 12:30N 40°50' E 014°16'0 0.0
2018-Apr-15 12:00N 40°50' E 014°16'0 0.0
2018-Apr-15 11:30N 40°50' E 014°16'0 0.0
2018-Apr-15 11:01N 40°50' E 014°16'0 0.0
2018-Apr-15 10:26N 40°50' E 014°16'0 0.0
2018-Apr-15 09:57N 40°50' E 014°16'0 0.0
2018-Apr-15 09:29N 40°50' E 014°16'0 0.0
2018-Apr-15 09:00N 40°50' E 014°16'0 0.0
2018-Apr-15 08:30N 40°50' E 014°16'0 0.0
2018-Apr-15 08:00N 40°50' E 014°16'0 0.0
2018-Apr-15 07:30N 40°50' E 014°16'0 0.0
2018-Apr-15 07:00N 40°50' E 014°16'0 0.0
2018-Apr-15 06:31N 40°50' E 014°16'0 0.0
2018-Apr-15 06:01N 40°50' E 014°16'0 0.0
2018-Apr-15 05:30N 40°50' E 014°16'0 0.0
2018-Apr-15 05:00N 40°50' E 014°16'0 0.1
2018-Apr-15 04:31N 40°50' E 014°16'1 2.6
2018-Apr-15 04:00N 40°49' E 014°17'612.4
2018-Apr-15 03:31N 40°44' E 014°12'714.2
2018-Apr-15 03:01N 40°40' E 014°05'714.0
2018-Apr-15 02:30N 40°39' E 013°56'815.7
2018-Apr-15 02:01N 40°39' E 013°46'  
Track history (hours):
 
Tides and Currents Weather Stations Pressure Air Temp Water Temp Dewpoint Dewpoint Depression Visibility Wind Speed Wind Dir Waves Ship Positions

Marella Spirit

Last reported at 2018-Apr-23 13:26 UTC. Time now 2018-Apr-23 13:51 UTC.
Position N 38°54' E 001°27'.

Length 214 m; draft 8 m.

Type: Passenger vessel. MMSI: 248368000.

Date/timePositionNaut miles runAvg speedWind from/ knotsBaromVisibWave heightAir tempDewpointWater temp
2018-Apr-23 13:26N 38°54' E 001°27'0 0.0
2018-Apr-23 13:00N 38°54' E 001°27'0 0.0
2018-Apr-23 12:17N 38°54' E 001°27'0 0.0
2018-Apr-23 11:16N 38°54' E 001°27'0 0.0
2018-Apr-23 11:00N 38°54' E 001°27'0 0.0
2018-Apr-23 10:30N 38°54' E 001°27'0 0.0
2018-Apr-23 09:59N 38°54' E 001°27'0 0.0
2018-Apr-23 09:28N 38°54' E 001°27'0 0.0
2018-Apr-23 08:48N 38°54' E 001°27'0 0.0
2018-Apr-23 07:10N 38°54' E 001°27'0 0.0
2018-Apr-23 06:42N 38°54' E 001°27'1 0.9
2018-Apr-23 05:12N 38°54' E 001°29'2 5.6
2018-Apr-23 04:55N 38°53' E 001°30'512.3
2018-Apr-23 04:30N 38°56' E 001°36'11813.7
2018-Apr-22 19:54N 40°52' E 002°05'410.9
2018-Apr-22 19:30N 40°56' E 002°06'510.5
2018-Apr-22 19:00N 41°02' E 002°07'510.8
2018-Apr-22 18:31N 41°07' E 002°09'510.7
2018-Apr-22 18:01N 41°12' E 002°10'510.8
2018-Apr-22 17:30N 41°18' E 002°11'4 7.1
2018-Apr-22 17:00N 41°21' E 002°10'0 0.8
2018-Apr-22 16:31N 41°21' E 002°11'0 0.0
2018-Apr-22 16:00N 41°21' E 002°11'0 0.0
2018-Apr-22 15:31N 41°21' E 002°11'0 0.0
2018-Apr-22 15:01N 41°21' E 002°11'0 0.0
2018-Apr-22 14:31N 41°21' E 002°11'0 0.0
2018-Apr-22 14:01N 41°21' E 002°11'0 0.0
2018-Apr-22 13:31N 41°21' E 002°11'0 0.0
2018-Apr-22 13:01N 41°21' E 002°11'0 0.0
2018-Apr-22 12:31N 41°21' E 002°11'0 0.0
2018-Apr-22 12:01N 41°21' E 002°11'0 0.0
2018-Apr-22 11:31N 41°21' E 002°11'0 0.0
2018-Apr-22 11:01N 41°21' E 002°11'0 0.0
2018-Apr-22 10:31N 41°21' E 002°11'0 0.0
2018-Apr-22 10:01N 41°21' E 002°11'0 0.0
2018-Apr-22 09:31N 41°21' E 002°11'0 0.0
2018-Apr-22 09:01N 41°21' E 002°11'0 0.0
2018-Apr-22 08:31N 41°21' E 002°11'0 0.0
2018-Apr-22 08:00N 41°21' E 002°11'0 0.0
2018-Apr-22 07:31N 41°21' E 002°11'0 0.0
2018-Apr-22 07:01N 41°21' E 002°11'0 0.0
2018-Apr-22 06:30N 41°21' E 002°11'0 0.1
2018-Apr-22 06:00N 41°21' E 002°11'1 2.6
2018-Apr-22 05:30N 41°20' E 002°10'2 4.4
2018-Apr-22 05:01N 41°18' E 002°11'510.3
2018-Apr-22 04:31N 41°19' E 002°17'714.0
2018-Apr-22 04:00N 41°22' E 002°25'12014.6
2018-Apr-21 19:44N 42°27' E 004°42'315.2
2018-Apr-21 19:30N 42°29' E 004°46'1015.2
2018-Apr-21 18:53N 42°34' E 004°57'815.3
2018-Apr-21 18:21N 42°39' E 005°06'1315.5
2018-Apr-21 17:31N 42°46' E 005°20'115.7
2018-Apr-21 17:28N 42°46' E 005°22'715.8
2018-Apr-21 16:59N 42°50' E 005°30'2515.1
2018-Apr-21 15:20N 43°05' E 005°58'2 7.2
2018-Apr-21 15:01N 43°06' E 005°55'1 1.5
2018-Apr-21 14:30N 43°07' E 005°56'0 0.0
2018-Apr-21 14:01N 43°07' E 005°56'0 0.0
2018-Apr-21 13:31N 43°07' E 005°56'0 0.0
2018-Apr-21 13:01N 43°07' E 005°56'0 0.0
2018-Apr-21 12:31N 43°07' E 005°56'0 0.0
2018-Apr-21 12:01N 43°07' E 005°56'0 0.0
2018-Apr-21 11:31N 43°07' E 005°56'0 0.0
2018-Apr-21 11:01N 43°07' E 005°56'0 0.0
2018-Apr-21 10:30N 43°07' E 005°56'0 0.0
2018-Apr-21 10:00N 43°07' E 005°56'0 0.0
2018-Apr-21 09:31N 43°07' E 005°56'0 0.0
2018-Apr-21 09:01N 43°07' E 005°56'0 0.0
2018-Apr-21 08:31N 43°07' E 005°56'0 0.0
2018-Apr-21 08:01N 43°07' E 005°56'0 0.0
2018-Apr-21 07:30N 43°07' E 005°56'0 0.0
2018-Apr-21 07:01N 43°07' E 005°56'0 0.3
2018-Apr-21 06:30N 43°07' E 005°56'0 0.5
2018-Apr-21 06:00N 43°07' E 005°55'1 3.0
2018-Apr-21 05:31N 43°05' E 005°56'4610.5
2018-Apr-21 01:06N 43°10' E 006°59'113.6
2018-Apr-21 01:00N 43°11' E 007°01'510.5
2018-Apr-21 00:30N 43°13' E 007°07'3 6.6
2018-Apr-20 23:59N 43°15' E 007°11'3 6.5
2018-Apr-20 23:30N 43°17' E 007°15'3 6.3
2018-Apr-20 22:59N 43°19' E 007°19'3 6.4
2018-Apr-20 22:30N 43°20' E 007°22'3 6.3
2018-Apr-20 22:00N 43°22' E 007°26'3 6.4
2018-Apr-20 21:30N 43°24' E 007°30'3 5.8
2018-Apr-20 20:59N 43°26' E 007°32'4 6.2
2018-Apr-20 20:23N 43°30' E 007°31'5 6.4
2018-Apr-20 19:39N 43°35' E 007°29'43 2.3
2018-Apr-20 01:20N 43°32' E 008°29'513.9
2018-Apr-20 01:00N 43°32' E 008°35'713.5
2018-Apr-20 00:31N 43°32' E 008°44'713.8
2018-Apr-20 00:01N 43°32' E 008°54'713.9
2018-Apr-19 23:30N 43°32' E 009°03'611.2
2018-Apr-19 23:01N 43°32' E 009°11'5 9.2
2018-Apr-19 22:30N 43°32' E 009°17'4 8.5
2018-Apr-19 22:00N 43°32' E 009°23'4 8.5
2018-Apr-19 21:31N 43°32' E 009°29'4 8.5
2018-Apr-19 21:00N 43°32' E 009°35'4 8.5
2018-Apr-19 20:30N 43°32' E 009°41'4 8.5
2018-Apr-19 20:00N 43°32' E 009°47'4 8.5
2018-Apr-19 19:31N 43°31' E 009°52'4 8.6
2018-Apr-19 19:00N 43°31' E 009°58'4 8.7
2018-Apr-19 18:30N 43°30' E 010°04'4 8.5
2018-Apr-19 18:01N 43°30' E 010°10'4 8.3
2018-Apr-19 17:31N 43°32' E 010°15'2 4.7
2018-Apr-19 17:01N 43°33' E 010°18'0 0.0
2018-Apr-19 16:31N 43°33' E 010°18'0 0.0
2018-Apr-19 16:01N 43°33' E 010°18'0 0.0
2018-Apr-19 15:31N 43°33' E 010°18'0 0.0
2018-Apr-19 15:01N 43°33' E 010°18'0 0.0
2018-Apr-19 14:31N 43°33' E 010°18'0 0.0
2018-Apr-19 14:01N 43°33' E 010°18'0 0.0
2018-Apr-19 13:31N 43°33' E 010°18'0 0.0
2018-Apr-19 13:01N 43°33' E 010°18'0 0.0
2018-Apr-19 12:30N 43°33' E 010°18'0 0.0
2018-Apr-19 12:01N 43°33' E 010°18'0 0.0
2018-Apr-19 11:31N 43°33' E 010°18'0 0.0
2018-Apr-19 11:01N 43°33' E 010°18'0 0.0
2018-Apr-19 10:30N 43°33' E 010°18'0 0.0
2018-Apr-19 10:01N 43°33' E 010°18'0 0.0
2018-Apr-19 09:31N 43°33' E 010°18'0 0.0
2018-Apr-19 09:01N 43°33' E 010°18'0 0.0
2018-Apr-19 08:31N 43°33' E 010°18'0 0.0
2018-Apr-19 08:01N 43°33' E 010°18'0 0.0
2018-Apr-19 07:31N 43°33' E 010°18'0 0.0
2018-Apr-19 07:00N 43°33' E 010°18'0 0.0
2018-Apr-19 06:31N 43°33' E 010°18'0 0.0
2018-Apr-19 06:00N 43°33' E 010°18'0 0.0
2018-Apr-19 05:31N 43°33' E 010°18'0 0.0
2018-Apr-19 05:00N 43°33' E 010°18'0 0.0
2018-Apr-19 04:30N 43°33' E 010°18'2 4.2
2018-Apr-19 04:01N 43°32' E 010°16'612.9
2018-Apr-19 03:30N 43°27' E 010°09'714.2
2018-Apr-19 03:01N 43°22' E 010°03'714.1
2018-Apr-19 02:31N 43°17' E 009°55'714.1
2018-Apr-19 02:00N 43°14' E 009°46'714.1
2018-Apr-19 01:30N 43°12' E 009°37'714.3
2018-Apr-19 01:00N 43°09' E 009°29'714.1
2018-Apr-19 00:29N 43°04' E 009°21'714.0
2018-Apr-19 00:00N 43°00' E 009°13'35113.7
2018-Apr-17 22:21N 39°17' E 003°13'513.6
2018-Apr-17 22:01N 39°15' E 003°07'1312.7
2018-Apr-17 21:01N 39°18' E 002°51'014.1
2018-Apr-17 21:00N 39°18' E 002°51'713.5
2018-Apr-17 20:30N 39°21' E 002°44'612.9
2018-Apr-17 20:01N 39°27' E 002°39'612.4
2018-Apr-17 19:30N 39°33' E 002°39'1 1.5
2018-Apr-17 19:00N 39°33' E 002°38'0 0.0
2018-Apr-17 18:30N 39°33' E 002°38'0 0.0
2018-Apr-17 18:00N 39°33' E 002°38'0 0.0
2018-Apr-17 17:30N 39°33' E 002°38'0 0.0
2018-Apr-17 17:00N 39°33' E 002°38'0 0.0
2018-Apr-17 16:30N 39°33' E 002°38'0 0.0
2018-Apr-17 16:00N 39°33' E 002°38'0 0.0
2018-Apr-17 15:30N 39°33' E 002°38'0 0.0
2018-Apr-17 15:00N 39°33' E 002°38'0 0.0
2018-Apr-17 14:31N 39°33' E 002°38'0 0.0
2018-Apr-17 14:00N 39°33' E 002°38'0 0.0
2018-Apr-17 13:29N 39°33' E 002°38'0 0.0
2018-Apr-17 13:00N 39°33' E 002°38'0 0.0
2018-Apr-17 12:30N 39°33' E 002°38'0 0.0
2018-Apr-17 11:59N 39°33' E 002°38'0 0.0
2018-Apr-17 11:30N 39°33' E 002°38'0 0.0
2018-Apr-17 11:00N 39°33' E 002°38'0 0.0
2018-Apr-17 10:30N 39°33' E 002°38'0 0.0
2018-Apr-17 10:00N 39°33' E 002°38'0 0.0
2018-Apr-17 09:30N 39°33' E 002°38'0 0.0
2018-Apr-17 09:00N 39°33' E 002°38'0 0.0
2018-Apr-17 08:30N 39°33' E 002°38'0 0.0
2018-Apr-17 08:00N 39°33' E 002°38'0 0.0
2018-Apr-17 07:30N 39°33' E 002°38'0 0.0
2018-Apr-17 07:00N 39°33' E 002°38'0 0.0
2018-Apr-17 06:30N 39°33' E 002°38'0 0.0
2018-Apr-17 06:00N 39°33' E 002°38'0 0.0
2018-Apr-17 05:30N 39°33' E 002°38'0 0.0
2018-Apr-17 05:00N 39°33' E 002°38'0 0.0
2018-Apr-17 04:30N 39°33' E 002°38'0 0.0
2018-Apr-17 04:00N 39°33' E 002°38'0 0.2
2018-Apr-17 03:30N 39°33' E 002°38'4 8.5
2018-Apr-17 03:00N 39°29' E 002°39'816.4
2018-Apr-17 02:30N 39°21' E 002°44'916.9
2018-Apr-17 01:59N 39°17' E 002°53'817.1
2018-Apr-17 01:30N 39°14' E 003°03'917.4
2018-Apr-17 00:59N 39°13' E 003°15'25616.6
2018-Apr-16 09:35N 38°46' E 008°42'216.0
2018-Apr-16 09:29N 38°46' E 008°44'715.7
2018-Apr-16 09:00N 38°47' E 008°54'915.9
2018-Apr-16 08:28N 38°50' E 009°04'816.1
2018-Apr-16 07:59N 38°52' E 009°13'816.4
2018-Apr-16 07:30N 38°55' E 009°23'23416.6
2018-Apr-15 17:22N 40°37' E 013°58'716.7
2018-Apr-15 16:55N 40°41' E 014°06'716.6
2018-Apr-15 16:31N 40°45' E 014°13'510.6
2018-Apr-15 16:00N 40°50' E 014°16'0 0.1
2018-Apr-15 15:30N 40°50' E 014°16'0 0.0
2018-Apr-15 14:59N 40°50' E 014°16'0 0.0
2018-Apr-15 14:30N 40°50' E 014°16'0 0.0
2018-Apr-15 14:00N 40°50' E 014°16'0 0.0
2018-Apr-15 13:30N 40°50' E 014°16'0 0.0
2018-Apr-15 13:00N 40°50' E 014°16'0 0.0
2018-Apr-15 12:30N 40°50' E 014°16'0 0.0
2018-Apr-15 12:00N 40°50' E 014°16'0 0.0
2018-Apr-15 11:30N 40°50' E 014°16'0 0.0
2018-Apr-15 11:01N 40°50' E 014°16'0 0.0
2018-Apr-15 10:26N 40°50' E 014°16'0 0.0
2018-Apr-15 09:57N 40°50' E 014°16'0 0.0
2018-Apr-15 09:29N 40°50' E 014°16'0 0.0
2018-Apr-15 09:00N 40°50' E 014°16'0 0.0
2018-Apr-15 08:30N 40°50' E 014°16'0 0.0
2018-Apr-15 08:00N 40°50' E 014°16'0 0.0
2018-Apr-15 07:30N 40°50' E 014°16'0 0.0
2018-Apr-15 07:00N 40°50' E 014°16'0 0.0
2018-Apr-15 06:31N 40°50' E 014°16'0 0.0
2018-Apr-15 06:01N 40°50' E 014°16'0 0.0
2018-Apr-15 05:30N 40°50' E 014°16'0 0.0
2018-Apr-15 05:00N 40°50' E 014°16'0 0.1
2018-Apr-15 04:31N 40°50' E 014°16'1 2.6
2018-Apr-15 04:00N 40°49' E 014°17'612.4
2018-Apr-15 03:31N 40°44' E 014°12'714.2
2018-Apr-15 03:01N 40°40' E 014°05'714.0
2018-Apr-15 02:30N 40°39' E 013°56'815.7
2018-Apr-15 02:01N 40°39' E 013°46'  

Dump ship's entire track history